createdAt,value
2019-01-24T00:02:30.035Z,64.11
2019-01-24T00:06:35.106Z,64.87
2019-01-24T00:10:40.175Z,64.62
2019-01-24T00:14:45.205Z,65.77
2019-01-24T00:18:51.927Z,65.19
2019-01-24T00:22:57.076Z,65.61
2019-01-24T00:27:02.216Z,63.93
2019-01-24T00:31:07.426Z,63.85
2019-01-24T00:35:12.930Z,64.27
2019-01-24T00:39:18.105Z,64.71
2019-01-24T00:43:23.212Z,65.40
2019-01-24T00:47:28.380Z,65.69
2019-01-24T00:51:52.559Z,65.06
2019-01-24T00:55:57.693Z,64.91
2019-01-24T01:00:21.797Z,65.05
2019-01-24T01:04:29.786Z,65.03
2019-01-24T01:08:39.673Z,64.94
2019-01-24T01:13:03.990Z,65.93
2019-01-24T01:21:26.219Z,65.17
2019-01-24T01:25:31.325Z,65.40
2019-01-24T01:29:47.909Z,64.56
2019-01-24T01:33:53.277Z,65.84
2019-01-24T01:37:58.461Z,64.84
2019-01-24T01:42:22.632Z,65.65
2019-01-24T01:46:27.786Z,65.03
2019-01-24T01:50:32.926Z,65.76
2019-01-24T01:54:38.014Z,65.16
2019-01-24T01:58:43.068Z,66.43
2019-01-24T02:02:48.202Z,65.44
2019-01-24T02:06:53.305Z,65.47
2019-01-24T02:10:58.352Z,66.60
2019-01-24T02:15:03.570Z,66.10
2019-01-24T02:23:44.909Z,65.90
2019-01-24T02:27:49.927Z,65.93
2019-01-24T02:31:55.153Z,65.87
2019-01-24T02:40:24.226Z,65.54
2019-01-24T02:44:48.325Z,65.39
2019-01-24T02:48:53.512Z,65.71
2019-01-24T02:53:10.906Z,67.03
2019-01-24T02:57:27.674Z,66.57
2019-01-24T03:01:32.739Z,65.70
2019-01-24T03:05:37.920Z,66.67
2019-01-24T03:09:43.038Z,65.82
2019-01-24T03:13:48.112Z,65.56
2019-01-24T03:17:53.275Z,65.46
2019-01-24T03:21:58.437Z,65.60
2019-01-24T03:26:03.575Z,65.11
2019-01-24T03:30:20.508Z,65.68
2019-01-24T03:34:25.583Z,65.73
2019-01-24T03:38:36.463Z,66.33
2019-01-24T03:42:41.915Z,65.67
2019-01-24T03:46:47.156Z,65.69
2019-01-24T03:51:11.734Z,66.12
2019-01-24T03:55:38.239Z,65.58
2019-01-24T03:59:43.417Z,66.04
2019-01-24T04:03:48.601Z,66.47
2019-01-24T04:07:53.692Z,66.16
2019-01-24T04:12:00.460Z,66.62
2019-01-24T04:16:07.165Z,66.71
2019-01-24T04:20:12.520Z,66.53
2019-01-24T04:24:17.751Z,66.48
2019-01-24T04:28:22.749Z,65.60
2019-01-24T04:32:27.720Z,66.43
2019-01-24T04:36:32.928Z,66.57
2019-01-24T04:40:37.930Z,66.55
2019-01-24T04:44:43.074Z,66.75
2019-01-24T04:48:48.163Z,66.86
2019-01-24T04:52:53.279Z,67.03
2019-01-24T04:56:58.362Z,67.98
2019-01-24T05:01:03.436Z,67.87
2019-01-24T05:05:08.509Z,68.06
2019-01-24T05:09:14.005Z,67.69
2019-01-24T05:13:19.112Z,68.08
2019-01-24T05:21:41.526Z,68.00
2019-01-24T05:25:46.649Z,67.63
2019-01-24T05:29:51.797Z,67.94
2019-01-24T05:33:57.006Z,67.30
2019-01-24T05:38:02.053Z,67.64
2019-01-24T05:42:07.212Z,67.77
2019-01-24T05:46:12.332Z,67.74
2019-01-24T05:54:41.506Z,67.54
2019-01-24T05:58:46.732Z,67.67
2019-01-24T06:02:51.843Z,67.88
2019-01-24T06:06:57.031Z,68.12
2019-01-24T06:11:03.762Z,66.25
2019-01-24T06:15:11.107Z,67.02
2019-01-24T06:19:16.202Z,66.65
2019-01-24T06:23:40.304Z,71.46
2019-01-24T06:27:45.525Z,67.78
2019-01-24T06:31:52.714Z,69.28
2019-01-24T06:35:57.843Z,70.47
2019-01-24T06:40:02.917Z,67.51
2019-01-24T06:44:19.823Z,68.64
2019-01-24T06:52:41.874Z,67.25
2019-01-24T06:56:48.628Z,67.96
2019-01-24T07:01:12.725Z,70.58
2019-01-24T07:05:36.805Z,71.18
2019-01-24T07:09:41.912Z,68.78
2019-01-24T07:13:47.050Z,68.37
2019-01-24T07:18:31.621Z,68.78
2019-01-24T07:22:36.669Z,69.50
2019-01-24T07:26:41.924Z,66.90
2019-01-24T07:31:06.036Z,68.66
2019-01-24T07:35:33.364Z,69.45
2019-01-24T07:39:38.481Z,67.35
2019-01-24T07:43:43.649Z,66.59
2019-01-24T07:47:48.883Z,66.82
2019-01-24T07:51:53.940Z,66.58
2019-01-24T07:56:18.077Z,67.29
2019-01-24T08:05:33.929Z,67.72
2019-01-24T08:09:39.026Z,67.58
2019-01-24T08:13:44.199Z,68.08
2019-01-24T08:22:45.337Z,67.95
2019-01-24T08:26:50.473Z,68.22
2019-01-24T08:31:07.168Z,67.72
2019-01-24T08:35:12.309Z,67.83
2019-01-24T08:39:17.434Z,67.57
2019-01-24T08:43:22.592Z,67.66
2019-01-24T08:47:39.119Z,68.36
2019-01-24T08:51:44.262Z,67.76
2019-01-24T08:55:49.369Z,66.98
2019-01-24T09:00:06.602Z,66.98
2019-01-24T09:08:47.733Z,67.53
2019-01-24T09:12:53.108Z,66.01
2019-01-24T09:16:58.146Z,65.65
2019-01-24T09:21:03.200Z,65.60
2019-01-24T09:25:08.611Z,65.60
2019-01-24T09:29:13.645Z,66.42
2019-01-24T09:33:18.645Z,65.47
2019-01-24T09:37:23.677Z,64.86
2019-01-24T09:41:28.826Z,63.81
2019-01-24T09:45:33.987Z,66.03
2019-01-24T09:49:39.140Z,63.20
2019-01-24T09:53:44.291Z,64.85
2019-01-24T09:57:49.447Z,63.34
2019-01-24T10:01:54.586Z,64.21
2019-01-24T10:05:59.813Z,65.30
2019-01-24T10:10:06.580Z,66.38
2019-01-24T10:14:11.742Z,65.37
2019-01-24T10:18:21.599Z,64.65
2019-01-24T10:22:23.585Z,65.98
2019-01-24T10:26:28.813Z,65.37
2019-01-24T10:30:33.878Z,64.35
2019-01-24T10:34:39.062Z,64.71
2019-01-24T10:38:44.173Z,65.29
2019-01-24T10:42:49.266Z,64.58
2019-01-24T10:46:54.334Z,63.74
2019-01-24T10:50:59.385Z,64.74
2019-01-24T10:55:04.911Z,65.49
2019-01-24T10:59:09.982Z,65.82
2019-01-24T11:03:16.956Z,61.76
2019-01-24T11:07:22.012Z,62.20
2019-01-24T11:11:27.066Z,60.76
2019-01-24T11:15:51.172Z,60.76
2019-01-24T11:19:56.296Z,60.37
2019-01-24T11:28:37.235Z,63.40
2019-01-24T11:32:42.428Z,63.74
2019-01-24T11:36:47.402Z,62.83
2019-01-24T11:40:52.516Z,62.64
2019-01-24T11:44:57.735Z,63.91
2019-01-24T11:49:02.803Z,63.04
2019-01-24T11:53:07.855Z,63.93
2019-01-24T11:57:12.997Z,63.10
2019-01-24T12:01:19.980Z,64.03
2019-01-24T12:05:43.953Z,62.89
2019-01-24T12:10:08.018Z,63.03
2019-01-24T12:14:13.122Z,61.83
2019-01-24T12:18:30.122Z,63.37
2019-01-24T12:22:35.306Z,64.05
2019-01-24T12:31:10.094Z,62.53
2019-01-24T12:40:18.282Z,63.19
2019-01-24T12:44:42.437Z,62.28
2019-01-24T12:57:41.201Z,63.02
2019-01-24T13:01:46.293Z,63.27
2019-01-24T13:05:51.379Z,62.54
2019-01-24T13:14:13.372Z,63.39
2019-01-24T13:18:18.527Z,63.32
2019-01-24T13:22:23.650Z,64.25
2019-01-24T13:26:28.735Z,63.81
2019-01-24T13:30:45.062Z,64.05
2019-01-24T13:35:09.255Z,63.89
2019-01-24T13:51:48.568Z,64.00
2019-01-24T13:55:53.736Z,62.71
2019-01-24T13:59:58.889Z,63.46
2019-01-24T14:04:26.862Z,63.82
2019-01-24T14:08:31.942Z,62.95
2019-01-24T14:12:37.063Z,63.86
2019-01-24T14:20:59.101Z,63.28
2019-01-24T14:29:54.776Z,63.89
2019-01-24T14:33:59.866Z,63.03
2019-01-24T14:38:23.953Z,63.36
2019-01-24T14:42:29.129Z,63.40
2019-01-24T14:46:34.225Z,63.67
2019-01-24T14:50:39.400Z,62.43
2019-01-24T14:54:44.533Z,62.66
2019-01-24T14:58:49.596Z,62.17
2019-01-24T15:03:13.757Z,63.00
2019-01-24T15:07:18.773Z,63.25
2019-01-24T15:11:24.196Z,63.51
2019-01-24T15:20:05.412Z,64.39
2019-01-24T15:24:10.506Z,63.08
2019-01-24T15:28:15.659Z,64.51
2019-01-24T15:32:20.763Z,63.94
2019-01-24T15:49:57.373Z,64.54
2019-01-24T15:54:02.594Z,65.39
2019-01-24T15:58:26.729Z,65.36
2019-01-24T16:02:31.971Z,64.55
2019-01-24T16:06:37.430Z,64.90
2019-01-24T16:14:59.876Z,64.63
2019-01-24T16:19:05.373Z,65.05
2019-01-24T16:23:10.497Z,64.72
2019-01-24T16:27:15.562Z,65.81
2019-01-24T16:31:20.630Z,65.35
2019-01-24T16:35:26.171Z,64.06
2019-01-24T16:39:31.240Z,64.27
2019-01-24T16:43:36.446Z,63.41
2019-01-24T16:47:41.593Z,64.04
2019-01-24T16:51:46.865Z,64.73
2019-01-24T16:55:53.081Z,65.12
2019-01-24T16:59:59.331Z,64.09
2019-01-24T17:04:25.934Z,63.59
2019-01-24T17:08:31.052Z,63.73
2019-01-24T17:12:55.147Z,63.99
2019-01-24T17:17:00.302Z,64.72
2019-01-24T17:21:44.894Z,64.15
2019-01-24T17:26:10.599Z,64.85
2019-01-24T17:30:18.544Z,66.45
2019-01-24T17:34:24.612Z,65.67
2019-01-24T17:38:29.796Z,64.84
2019-01-24T17:42:34.966Z,66.01
2019-01-24T17:46:40.108Z,66.84
2019-01-24T17:50:45.136Z,67.93
2019-01-24T17:55:09.247Z,65.78
2019-01-24T17:59:14.256Z,65.82
2019-01-24T18:03:19.380Z,65.21
2019-01-24T18:07:24.750Z,65.36
2019-01-24T18:11:41.736Z,65.79
2019-01-24T18:15:46.818Z,65.72
2019-01-24T18:19:51.983Z,66.22
2019-01-24T18:23:57.034Z,65.93
2019-01-24T18:28:02.129Z,66.11
2019-01-24T18:32:07.273Z,66.38
2019-01-24T18:36:12.541Z,65.99
2019-01-24T18:40:36.845Z,66.17
2019-01-24T18:44:41.970Z,65.23
2019-01-24T18:48:47.049Z,64.78
2019-01-24T18:57:29.170Z,65.90
2019-01-24T19:01:34.619Z,66.42
2019-01-24T19:05:40.673Z,68.03
2019-01-24T19:09:46.009Z,68.16
2019-01-24T19:14:10.212Z,68.54
2019-01-24T19:18:15.469Z,69.41
2019-01-24T19:22:20.720Z,69.45
2019-01-24T19:26:26.048Z,69.64
2019-01-24T19:30:50.262Z,70.14
2019-01-24T19:34:56.122Z,69.87
2019-01-24T19:39:01.225Z,70.21
2019-01-24T19:43:08.716Z,70.63
2019-01-24T19:47:13.875Z,70.80
2019-01-24T19:51:38.079Z,70.53
2019-01-24T19:55:43.222Z,70.40
2019-01-24T20:00:27.982Z,70.78
2019-01-24T20:04:52.330Z,69.75
2019-01-24T20:09:00.297Z,70.36
2019-01-24T20:13:09.554Z,70.30
2019-01-24T20:17:14.672Z,70.76
2019-01-24T20:21:19.902Z,70.93
2019-01-24T20:25:46.482Z,69.62
2019-01-24T20:30:10.708Z,69.64
2019-01-24T20:34:21.259Z,70.12
2019-01-24T20:38:26.483Z,70.72
2019-01-24T20:42:31.706Z,70.19
2019-01-24T20:46:36.844Z,71.05
2019-01-24T20:50:41.923Z,70.68
2019-01-24T20:54:47.041Z,71.15
2019-01-24T20:58:52.132Z,71.22
2019-01-24T21:02:57.325Z,71.19
2019-01-24T21:07:02.403Z,71.58
2019-01-24T21:11:07.762Z,71.25
2019-01-24T21:15:13.820Z,71.54
2019-01-24T21:19:18.938Z,71.93
2019-01-24T21:23:24.118Z,71.93
2019-01-24T21:27:30.240Z,71.87
2019-01-24T21:31:35.268Z,71.91
2019-01-24T21:35:40.468Z,72.21
2019-01-24T21:39:45.636Z,72.47
2019-01-24T21:43:50.697Z,72.71
2019-01-24T21:47:55.798Z,73.00
2019-01-24T21:56:19.529Z,72.79
2019-01-24T22:05:02.438Z,72.91
2019-01-24T22:17:41.146Z,72.22
2019-01-24T22:21:46.174Z,73.20
2019-01-24T22:25:51.236Z,73.02
2019-01-24T22:29:56.284Z,73.19
2019-01-24T22:34:01.411Z,73.36
2019-01-24T22:38:07.108Z,73.39
2019-01-24T22:42:12.237Z,73.58
2019-01-24T22:46:17.290Z,73.52
2019-01-24T22:50:22.582Z,73.42
2019-01-24T22:54:28.045Z,73.55
2019-01-24T22:58:33.816Z,73.37
2019-01-24T23:02:39.949Z,73.20
2019-01-24T23:06:45.091Z,72.85
2019-01-24T23:10:50.628Z,71.95
2019-01-24T23:14:55.720Z,72.21
2019-01-24T23:19:01.837Z,72.36
2019-01-24T23:23:06.995Z,72.95
2019-01-24T23:27:12.193Z,72.95
2019-01-24T23:31:17.321Z,72.46
2019-01-24T23:35:22.405Z,72.86
2019-01-24T23:39:27.573Z,71.52
2019-01-24T23:43:32.718Z,72.21
2019-01-24T23:47:38.153Z,71.79
2019-01-24T23:51:43.502Z,72.05
2019-01-24T23:55:48.620Z,71.80
